メインページ
METAR-TAF:

METAR-TAF

空港 :

アリス・スプリングス空港

アリススプリングス, オーストラリア

緯度: 23-48S, 経度: 133-53E, 海抜: 545m

現時点の気象観測

当レポートは33分前の01:00(UTC)に作成
南東の風 11kt、から南東の間で変化する
気温 23°C
湿度 33%
気圧 1021 hPa
視程10km以上
1,500メートル以下は雲なし、積乱雲なし

METAR: YBAS 160100Z 13011KT 080V140 CAVOK 23/06 Q1021 RF00.0/000.0

時間: 11:03 (01:33 UTC)

予報

当レポートは2時間23分前の23:10(UTC)に作成
予報は16日の 00時(UTC)から 16日の 24時(UTC)まで有効
南東の風 14kt
視程10km以上
1,500メートル以下は雲なし、積乱雲なし
16日の 0900時(UTC)から
南東の風 7kt
視程10km以上
1,500メートル以下は雲なし、積乱雲なし

TAF: YBAS 152310Z 1600/1624 13014KT CAVOK FM160900 13007KT CAVOK

4,000以上の空港の気象観測と天気予報(METAR報とTAF報)

利用可能な観測所は地図上に黄色い丸と赤い丸で示す。

丸の上にカーソルを重ねると観測所名を参照できる。

次にクリックすると気象観測と天気予報を参照できる。

マップの切り替え:黒色「×」印の緑ボタンをクリックして拡大、「-」印の緑ボタンをクリックして縮小、緑色の三角印をクリックして隣りの地図に切り替え


METAR-TAF: